sensor_id;sensor_type;location;lat;lon;timestamp;P1;durP1;ratioP1;P2;durP2;ratioP2
32292;SDS011;43233;48.608;8.838;2023-01-31T00:00:44;9.20;;;5.50;;
32292;SDS011;43233;48.608;8.838;2023-01-31T00:03:10;8.33;;;5.63;;
32292;SDS011;43233;48.608;8.838;2023-01-31T00:05:35;6.70;;;4.73;;
32292;SDS011;43233;48.608;8.838;2023-01-31T00:08:01;8.70;;;4.90;;
32292;SDS011;43233;48.608;8.838;2023-01-31T00:10:27;8.73;;;4.73;;
32292;SDS011;43233;48.608;8.838;2023-01-31T00:12:52;9.90;;;5.30;;
32292;SDS011;43233;48.608;8.838;2023-01-31T00:15:18;5.30;;;4.50;;
32292;SDS011;43233;48.608;8.838;2023-01-31T00:17:43;8.20;;;5.27;;
32292;SDS011;43233;48.608;8.838;2023-01-31T00:20:10;14.70;;;5.50;;
32292;SDS011;43233;48.608;8.838;2023-01-31T00:22:36;11.47;;;4.90;;
32292;SDS011;43233;48.608;8.838;2023-01-31T00:25:01;8.97;;;4.20;;
32292;SDS011;43233;48.608;8.838;2023-01-31T00:27:28;8.33;;;5.10;;
32292;SDS011;43233;48.608;8.838;2023-01-31T00:29:53;9.23;;;4.70;;
32292;SDS011;43233;48.608;8.838;2023-01-31T00:32:19;8.13;;;5.20;;
32292;SDS011;43233;48.608;8.838;2023-01-31T00:34:44;7.20;;;4.70;;
32292;SDS011;43233;48.608;8.838;2023-01-31T00:37:10;8.60;;;4.90;;
32292;SDS011;43233;48.608;8.838;2023-01-31T00:39:35;4.53;;;4.13;;
32292;SDS011;43233;48.608;8.838;2023-01-31T00:42:01;9.30;;;4.70;;
32292;SDS011;43233;48.608;8.838;2023-01-31T00:44:27;12.67;;;5.47;;
32292;SDS011;43233;48.608;8.838;2023-01-31T00:46:53;6.67;;;4.87;;
32292;SDS011;43233;48.608;8.838;2023-01-31T00:49:18;13.90;;;5.90;;
32292;SDS011;43233;48.608;8.838;2023-01-31T00:51:44;13.00;;;5.40;;
32292;SDS011;43233;48.608;8.838;2023-01-31T00:54:09;9.43;;;5.23;;
32292;SDS011;43233;48.608;8.838;2023-01-31T00:56:35;8.37;;;5.17;;
32292;SDS011;43233;48.608;8.838;2023-01-31T00:59:02;8.77;;;5.20;;
32292;SDS011;43233;48.608;8.838;2023-01-31T01:01:32;5.80;;;4.47;;
32292;SDS011;43233;48.608;8.838;2023-01-31T01:03:59;10.00;;;4.20;;
32292;SDS011;43233;48.608;8.838;2023-01-31T01:06:25;8.80;;;4.63;;
32292;SDS011;43233;48.608;8.838;2023-01-31T01:08:51;7.83;;;6.13;;
32292;SDS011;43233;48.608;8.838;2023-01-31T01:11:22;5.97;;;4.67;;
32292;SDS011;43233;48.608;8.838;2023-01-31T01:13:52;5.00;;;4.70;;
32292;SDS011;43233;48.608;8.838;2023-01-31T01:16:25;10.13;;;5.20;;
32292;SDS011;43233;48.608;8.838;2023-01-31T01:18:56;9.90;;;4.77;;
32292;SDS011;43233;48.608;8.838;2023-01-31T01:21:24;19.30;;;4.80;;
32292;SDS011;43233;48.608;8.838;2023-01-31T01:23:51;6.40;;;4.57;;
32292;SDS011;43233;48.608;8.838;2023-01-31T01:26:20;8.80;;;4.60;;
32292;SDS011;43233;48.608;8.838;2023-01-31T01:28:52;6.70;;;4.60;;
32292;SDS011;43233;48.608;8.838;2023-01-31T01:31:19;8.97;;;5.27;;
32292;SDS011;43233;48.608;8.838;2023-01-31T01:33:46;11.83;;;4.93;;
32292;SDS011;43233;48.608;8.838;2023-01-31T01:36:14;7.50;;;4.47;;
32292;SDS011;43233;48.608;8.838;2023-01-31T01:38:41;5.93;;;4.40;;
32292;SDS011;43233;48.608;8.838;2023-01-31T01:41:09;5.37;;;4.10;;
32292;SDS011;43233;48.608;8.838;2023-01-31T01:46:10;8.57;;;4.70;;
32292;SDS011;43233;48.608;8.838;2023-01-31T01:48:51;5.83;;;4.87;;
32292;SDS011;43233;48.608;8.838;2023-01-31T01:51:30;13.53;;;5.70;;
32292;SDS011;43233;48.608;8.838;2023-01-31T01:53:58;15.80;;;6.80;;
32292;SDS011;43233;48.608;8.838;2023-01-31T01:56:31;9.10;;;6.63;;
32292;SDS011;43233;48.608;8.838;2023-01-31T01:59:06;5.30;;;4.33;;
32292;SDS011;43233;48.608;8.838;2023-01-31T02:01:39;5.27;;;4.77;;
32292;SDS011;43233;48.608;8.838;2023-01-31T02:04:05;8.10;;;5.00;;
32292;SDS011;43233;48.608;8.838;2023-01-31T02:06:33;6.83;;;4.93;;
32292;SDS011;43233;48.608;8.838;2023-01-31T02:08:59;8.83;;;4.60;;
32292;SDS011;43233;48.608;8.838;2023-01-31T02:11:28;7.33;;;4.90;;
32292;SDS011;43233;48.608;8.838;2023-01-31T02:14:06;8.00;;;4.40;;
32292;SDS011;43233;48.608;8.838;2023-01-31T02:16:34;7.53;;;4.53;;
32292;SDS011;43233;48.608;8.838;2023-01-31T02:19:00;6.93;;;4.60;;
32292;SDS011;43233;48.608;8.838;2023-01-31T02:35:37;5.60;;;4.73;;
32292;SDS011;43233;48.608;8.838;2023-01-31T02:41:11;5.27;;;4.37;;
32292;SDS011;43233;48.608;8.838;2023-01-31T02:46:29;5.30;;;4.50;;
32292;SDS011;43233;48.608;8.838;2023-01-31T02:52:05;8.80;;;5.03;;
32292;SDS011;43233;48.608;8.838;2023-01-31T02:54:53;9.87;;;5.17;;
32292;SDS011;43233;48.608;8.838;2023-01-31T02:57:38;6.20;;;5.20;;
32292;SDS011;43233;48.608;8.838;2023-01-31T03:00:06;9.23;;;5.00;;
32292;SDS011;43233;48.608;8.838;2023-01-31T03:02:33;4.93;;;4.47;;
32292;SDS011;43233;48.608;8.838;2023-01-31T03:04:59;5.60;;;4.87;;
32292;SDS011;43233;48.608;8.838;2023-01-31T03:07:25;8.80;;;4.90;;
32292;SDS011;43233;48.608;8.838;2023-01-31T03:13:09;8.20;;;4.73;;
32292;SDS011;43233;48.608;8.838;2023-01-31T03:21:38;8.27;;;6.60;;
32292;SDS011;43233;48.608;8.838;2023-01-31T03:24:09;10.30;;;7.07;;
32292;SDS011;43233;48.608;8.838;2023-01-31T03:26:36;9.50;;;5.63;;
32292;SDS011;43233;48.608;8.838;2023-01-31T03:29:02;11.43;;;6.10;;
32292;SDS011;43233;48.608;8.838;2023-01-31T03:34:04;10.83;;;5.87;;
32292;SDS011;43233;48.608;8.838;2023-01-31T03:39:12;8.63;;;5.60;;
32292;SDS011;43233;48.608;8.838;2023-01-31T03:44:45;10.73;;;5.60;;
32292;SDS011;43233;48.608;8.838;2023-01-31T03:47:25;7.63;;;5.70;;
32292;SDS011;43233;48.608;8.838;2023-01-31T03:49:55;11.07;;;5.73;;
32292;SDS011;43233;48.608;8.838;2023-01-31T03:52:26;9.03;;;5.70;;
32292;SDS011;43233;48.608;8.838;2023-01-31T03:54:59;10.10;;;5.83;;
32292;SDS011;43233;48.608;8.838;2023-01-31T03:57:37;7.70;;;5.50;;
32292;SDS011;43233;48.608;8.838;2023-01-31T04:00:07;7.20;;;5.30;;
32292;SDS011;43233;48.608;8.838;2023-01-31T04:02:36;5.77;;;5.17;;
32292;SDS011;43233;48.608;8.838;2023-01-31T04:05:04;8.97;;;5.90;;
32292;SDS011;43233;48.608;8.838;2023-01-31T04:07:31;9.53;;;5.83;;
32292;SDS011;43233;48.608;8.838;2023-01-31T04:09:57;9.80;;;5.57;;
32292;SDS011;43233;48.608;8.838;2023-01-31T04:12:23;9.63;;;6.10;;
32292;SDS011;43233;48.608;8.838;2023-01-31T04:14:48;9.30;;;5.53;;
32292;SDS011;43233;48.608;8.838;2023-01-31T04:17:14;11.20;;;6.20;;
32292;SDS011;43233;48.608;8.838;2023-01-31T04:19:39;10.43;;;5.50;;
32292;SDS011;43233;48.608;8.838;2023-01-31T04:22:05;7.40;;;6.03;;
32292;SDS011;43233;48.608;8.838;2023-01-31T04:24:31;7.20;;;5.40;;
32292;SDS011;43233;48.608;8.838;2023-01-31T04:26:57;10.53;;;6.30;;
32292;SDS011;43233;48.608;8.838;2023-01-31T04:29:22;7.73;;;5.90;;
32292;SDS011;43233;48.608;8.838;2023-01-31T04:31:48;7.83;;;6.30;;
32292;SDS011;43233;48.608;8.838;2023-01-31T04:34:14;10.73;;;6.40;;
32292;SDS011;43233;48.608;8.838;2023-01-31T04:36:39;9.33;;;6.40;;
32292;SDS011;43233;48.608;8.838;2023-01-31T04:39:06;10.83;;;5.90;;
32292;SDS011;43233;48.608;8.838;2023-01-31T04:41:33;10.20;;;5.67;;
32292;SDS011;43233;48.608;8.838;2023-01-31T04:43:59;6.00;;;5.30;;
32292;SDS011;43233;48.608;8.838;2023-01-31T04:46:24;7.20;;;4.87;;
32292;SDS011;43233;48.608;8.838;2023-01-31T04:48:50;6.03;;;5.30;;
32292;SDS011;43233;48.608;8.838;2023-01-31T04:51:15;15.00;;;6.10;;
32292;SDS011;43233;48.608;8.838;2023-01-31T04:53:42;9.40;;;5.40;;
32292;SDS011;43233;48.608;8.838;2023-01-31T04:56:08;7.67;;;6.33;;
32292;SDS011;43233;48.608;8.838;2023-01-31T04:58:35;9.73;;;6.30;;
32292;SDS011;43233;48.608;8.838;2023-01-31T05:01:00;13.80;;;7.20;;
32292;SDS011;43233;48.608;8.838;2023-01-31T05:03:26;24.67;;;10.97;;
32292;SDS011;43233;48.608;8.838;2023-01-31T05:05:52;18.20;;;9.80;;
32292;SDS011;43233;48.608;8.838;2023-01-31T05:08:17;12.50;;;7.50;;
32292;SDS011;43233;48.608;8.838;2023-01-31T05:10:43;12.00;;;7.80;;
32292;SDS011;43233;48.608;8.838;2023-01-31T05:13:09;11.03;;;7.27;;
32292;SDS011;43233;48.608;8.838;2023-01-31T05:15:34;58.43;;;25.70;;
32292;SDS011;43233;48.608;8.838;2023-01-31T05:18:00;113.20;;;44.23;;
32292;SDS011;43233;48.608;8.838;2023-01-31T05:20:33;57.77;;;27.03;;
32292;SDS011;43233;48.608;8.838;2023-01-31T05:23:03;24.10;;;12.10;;
32292;SDS011;43233;48.608;8.838;2023-01-31T05:25:29;15.93;;;9.70;;
32292;SDS011;43233;48.608;8.838;2023-01-31T05:27:55;10.77;;;7.60;;
32292;SDS011;43233;48.608;8.838;2023-01-31T05:30:21;9.23;;;7.07;;
32292;SDS011;43233;48.608;8.838;2023-01-31T05:32:50;17.47;;;6.90;;
32292;SDS011;43233;48.608;8.838;2023-01-31T05:35:16;16.00;;;6.03;;
32292;SDS011;43233;48.608;8.838;2023-01-31T05:37:41;13.97;;;7.27;;
32292;SDS011;43233;48.608;8.838;2023-01-31T05:40:09;10.80;;;6.43;;
32292;SDS011;43233;48.608;8.838;2023-01-31T05:42:39;8.50;;;6.33;;
32292;SDS011;43233;48.608;8.838;2023-01-31T05:45:05;7.97;;;6.67;;
32292;SDS011;43233;48.608;8.838;2023-01-31T05:47:32;14.93;;;7.00;;
32292;SDS011;43233;48.608;8.838;2023-01-31T05:49:58;12.47;;;7.00;;
32292;SDS011;43233;48.608;8.838;2023-01-31T05:52:23;9.30;;;6.57;;
32292;SDS011;43233;48.608;8.838;2023-01-31T05:54:49;13.83;;;7.43;;
32292;SDS011;43233;48.608;8.838;2023-01-31T05:57:14;12.87;;;7.00;;
32292;SDS011;43233;48.608;8.838;2023-01-31T05:59:40;12.53;;;6.80;;
32292;SDS011;43233;48.608;8.838;2023-01-31T06:02:06;14.60;;;6.97;;
32292;SDS011;43233;48.608;8.838;2023-01-31T06:04:35;12.23;;;7.03;;
32292;SDS011;43233;48.608;8.838;2023-01-31T06:07:01;10.10;;;6.23;;
32292;SDS011;43233;48.608;8.838;2023-01-31T06:09:27;13.70;;;8.47;;
32292;SDS011;43233;48.608;8.838;2023-01-31T06:11:53;11.00;;;8.13;;
32292;SDS011;43233;48.608;8.838;2023-01-31T06:14:19;13.33;;;7.30;;
32292;SDS011;43233;48.608;8.838;2023-01-31T06:16:44;10.70;;;7.30;;
32292;SDS011;43233;48.608;8.838;2023-01-31T06:19:10;11.80;;;8.03;;
32292;SDS011;43233;48.608;8.838;2023-01-31T06:21:36;9.87;;;7.27;;
32292;SDS011;43233;48.608;8.838;2023-01-31T06:24:01;12.90;;;8.30;;
32292;SDS011;43233;48.608;8.838;2023-01-31T06:26:27;14.20;;;8.20;;
32292;SDS011;43233;48.608;8.838;2023-01-31T06:28:53;11.13;;;7.20;;
32292;SDS011;43233;48.608;8.838;2023-01-31T06:31:19;12.50;;;7.43;;
32292;SDS011;43233;48.608;8.838;2023-01-31T06:33:45;13.17;;;7.00;;
32292;SDS011;43233;48.608;8.838;2023-01-31T06:36:10;16.40;;;7.83;;
32292;SDS011;43233;48.608;8.838;2023-01-31T06:38:36;7.20;;;5.70;;
32292;SDS011;43233;48.608;8.838;2023-01-31T06:41:02;8.40;;;7.17;;
32292;SDS011;43233;48.608;8.838;2023-01-31T06:43:27;16.70;;;6.80;;
32292;SDS011;43233;48.608;8.838;2023-01-31T06:45:53;9.00;;;6.37;;
32292;SDS011;43233;48.608;8.838;2023-01-31T06:48:18;12.00;;;6.13;;
32292;SDS011;43233;48.608;8.838;2023-01-31T06:50:45;14.10;;;6.10;;
32292;SDS011;43233;48.608;8.838;2023-01-31T06:53:11;7.50;;;6.00;;
32292;SDS011;43233;48.608;8.838;2023-01-31T06:55:37;11.10;;;5.40;;
32292;SDS011;43233;48.608;8.838;2023-01-31T06:58:02;13.37;;;7.10;;
32292;SDS011;43233;48.608;8.838;2023-01-31T07:00:28;11.13;;;5.90;;
32292;SDS011;43233;48.608;8.838;2023-01-31T07:02:54;6.40;;;5.80;;
32292;SDS011;43233;48.608;8.838;2023-01-31T07:05:21;13.33;;;5.87;;
32292;SDS011;43233;48.608;8.838;2023-01-31T07:07:47;12.40;;;5.80;;
32292;SDS011;43233;48.608;8.838;2023-01-31T07:10:14;9.47;;;5.50;;
32292;SDS011;43233;48.608;8.838;2023-01-31T07:12:40;7.57;;;6.07;;
32292;SDS011;43233;48.608;8.838;2023-01-31T07:15:06;13.97;;;7.07;;
32292;SDS011;43233;48.608;8.838;2023-01-31T07:17:33;16.17;;;8.20;;
32292;SDS011;43233;48.608;8.838;2023-01-31T07:19:59;22.07;;;8.10;;
32292;SDS011;43233;48.608;8.838;2023-01-31T07:22:25;27.37;;;15.83;;
32292;SDS011;43233;48.608;8.838;2023-01-31T07:24:50;79.50;;;30.37;;
32292;SDS011;43233;48.608;8.838;2023-01-31T07:27:16;12.83;;;7.33;;
32292;SDS011;43233;48.608;8.838;2023-01-31T07:29:42;13.93;;;6.10;;
32292;SDS011;43233;48.608;8.838;2023-01-31T07:32:08;15.10;;;8.10;;
32292;SDS011;43233;48.608;8.838;2023-01-31T07:34:34;15.87;;;7.63;;
32292;SDS011;43233;48.608;8.838;2023-01-31T07:36:59;10.27;;;6.60;;
32292;SDS011;43233;48.608;8.838;2023-01-31T07:39:25;9.53;;;5.80;;
32292;SDS011;43233;48.608;8.838;2023-01-31T07:41:51;10.70;;;5.93;;
32292;SDS011;43233;48.608;8.838;2023-01-31T07:44:17;12.70;;;6.60;;
32292;SDS011;43233;48.608;8.838;2023-01-31T07:46:42;21.33;;;9.50;;
32292;SDS011;43233;48.608;8.838;2023-01-31T07:49:08;29.53;;;10.90;;
32292;SDS011;43233;48.608;8.838;2023-01-31T07:51:34;9.10;;;6.10;;
32292;SDS011;43233;48.608;8.838;2023-01-31T07:54:00;23.13;;;12.27;;
32292;SDS011;43233;48.608;8.838;2023-01-31T07:56:26;25.10;;;11.00;;
32292;SDS011;43233;48.608;8.838;2023-01-31T07:58:52;18.47;;;12.10;;
32292;SDS011;43233;48.608;8.838;2023-01-31T08:01:22;33.23;;;13.77;;
32292;SDS011;43233;48.608;8.838;2023-01-31T08:04:09;28.20;;;12.00;;
32292;SDS011;43233;48.608;8.838;2023-01-31T08:06:37;34.97;;;14.40;;
32292;SDS011;43233;48.608;8.838;2023-01-31T08:09:04;23.80;;;13.00;;
32292;SDS011;43233;48.608;8.838;2023-01-31T08:11:29;20.50;;;9.90;;
32292;SDS011;43233;48.608;8.838;2023-01-31T08:13:55;25.53;;;8.83;;
32292;SDS011;43233;48.608;8.838;2023-01-31T08:16:21;16.47;;;9.37;;
32292;SDS011;43233;48.608;8.838;2023-01-31T08:18:47;19.73;;;8.03;;
32292;SDS011;43233;48.608;8.838;2023-01-31T08:21:13;20.60;;;7.93;;
32292;SDS011;43233;48.608;8.838;2023-01-31T08:23:39;19.20;;;9.77;;
32292;SDS011;43233;48.608;8.838;2023-01-31T08:26:06;16.87;;;7.40;;
32292;SDS011;43233;48.608;8.838;2023-01-31T08:28:35;15.50;;;8.33;;
32292;SDS011;43233;48.608;8.838;2023-01-31T08:31:01;20.20;;;9.73;;
32292;SDS011;43233;48.608;8.838;2023-01-31T08:33:27;11.10;;;7.50;;
32292;SDS011;43233;48.608;8.838;2023-01-31T08:35:53;14.90;;;7.43;;
32292;SDS011;43233;48.608;8.838;2023-01-31T08:38:19;9.90;;;5.87;;
32292;SDS011;43233;48.608;8.838;2023-01-31T08:40:45;10.20;;;5.80;;
32292;SDS011;43233;48.608;8.838;2023-01-31T08:43:10;15.03;;;5.80;;
32292;SDS011;43233;48.608;8.838;2023-01-31T08:45:36;17.37;;;7.10;;
32292;SDS011;43233;48.608;8.838;2023-01-31T08:48:02;13.93;;;6.93;;
32292;SDS011;43233;48.608;8.838;2023-01-31T08:50:28;13.67;;;8.07;;
32292;SDS011;43233;48.608;8.838;2023-01-31T08:52:57;12.10;;;5.63;;
32292;SDS011;43233;48.608;8.838;2023-01-31T08:55:27;14.30;;;5.60;;
32292;SDS011;43233;48.608;8.838;2023-01-31T08:57:54;9.33;;;5.30;;
32292;SDS011;43233;48.608;8.838;2023-01-31T09:00:20;13.03;;;5.80;;
32292;SDS011;43233;48.608;8.838;2023-01-31T09:02:53;9.40;;;5.13;;
32292;SDS011;43233;48.608;8.838;2023-01-31T09:05:19;10.30;;;6.10;;
32292;SDS011;43233;48.608;8.838;2023-01-31T09:07:45;10.23;;;5.03;;
32292;SDS011;43233;48.608;8.838;2023-01-31T09:10:11;8.73;;;4.83;;
32292;SDS011;43233;48.608;8.838;2023-01-31T09:12:37;10.07;;;5.00;;
32292;SDS011;43233;48.608;8.838;2023-01-31T09:15:02;11.27;;;4.90;;
32292;SDS011;43233;48.608;8.838;2023-01-31T09:17:29;7.90;;;4.33;;
32292;SDS011;43233;48.608;8.838;2023-01-31T09:19:55;11.30;;;4.30;;
32292;SDS011;43233;48.608;8.838;2023-01-31T09:22:21;12.70;;;4.30;;
32292;SDS011;43233;48.608;8.838;2023-01-31T09:24:47;10.50;;;4.60;;
32292;SDS011;43233;48.608;8.838;2023-01-31T09:27:13;7.50;;;4.83;;
32292;SDS011;43233;48.608;8.838;2023-01-31T09:29:39;8.03;;;5.30;;
32292;SDS011;43233;48.608;8.838;2023-01-31T09:32:04;7.13;;;4.03;;
32292;SDS011;43233;48.608;8.838;2023-01-31T09:34:30;7.40;;;3.80;;
32292;SDS011;43233;48.608;8.838;2023-01-31T09:36:56;10.87;;;4.50;;
32292;SDS011;43233;48.608;8.838;2023-01-31T09:39:22;7.37;;;3.97;;
32292;SDS011;43233;48.608;8.838;2023-01-31T09:41:52;11.37;;;3.80;;
32292;SDS011;43233;48.608;8.838;2023-01-31T09:49:35;7.70;;;4.47;;
32292;SDS011;43233;48.608;8.838;2023-01-31T09:52:10;9.57;;;4.30;;
32292;SDS011;43233;48.608;8.838;2023-01-31T09:54:36;8.10;;;3.77;;
32292;SDS011;43233;48.608;8.838;2023-01-31T09:57:07;5.33;;;3.83;;
32292;SDS011;43233;48.608;8.838;2023-01-31T09:59:45;16.03;;;5.43;;
32292;SDS011;43233;48.608;8.838;2023-01-31T10:02:30;7.20;;;4.30;;
32292;SDS011;43233;48.608;8.838;2023-01-31T10:11:10;8.73;;;3.93;;
32292;SDS011;43233;48.608;8.838;2023-01-31T10:13:44;6.93;;;4.00;;
32292;SDS011;43233;48.608;8.838;2023-01-31T10:16:35;8.47;;;3.90;;
32292;SDS011;43233;48.608;8.838;2023-01-31T10:19:18;16.90;;;5.13;;
32292;SDS011;43233;48.608;8.838;2023-01-31T10:21:53;10.10;;;3.93;;
32292;SDS011;43233;48.608;8.838;2023-01-31T10:24:38;6.63;;;4.07;;
32292;SDS011;43233;48.608;8.838;2023-01-31T10:27:17;10.47;;;4.20;;
32292;SDS011;43233;48.608;8.838;2023-01-31T10:30:05;14.33;;;4.63;;
32292;SDS011;43233;48.608;8.838;2023-01-31T10:32:37;10.83;;;3.90;;
32292;SDS011;43233;48.608;8.838;2023-01-31T10:38:00;10.80;;;4.47;;
32292;SDS011;43233;48.608;8.838;2023-01-31T10:40:47;8.57;;;3.50;;
32292;SDS011;43233;48.608;8.838;2023-01-31T10:43:20;9.80;;;3.33;;
32292;SDS011;43233;48.608;8.838;2023-01-31T10:45:54;7.60;;;3.70;;
32292;SDS011;43233;48.608;8.838;2023-01-31T10:48:23;7.03;;;3.67;;
32292;SDS011;43233;48.608;8.838;2023-01-31T10:53:42;10.50;;;4.07;;
32292;SDS011;43233;48.608;8.838;2023-01-31T10:56:25;8.90;;;3.83;;
32292;SDS011;43233;48.608;8.838;2023-01-31T10:58:52;8.47;;;3.57;;
32292;SDS011;43233;48.608;8.838;2023-01-31T11:01:19;7.50;;;3.50;;
32292;SDS011;43233;48.608;8.838;2023-01-31T11:03:46;9.70;;;3.80;;
32292;SDS011;43233;48.608;8.838;2023-01-31T11:06:14;8.13;;;3.10;;
32292;SDS011;43233;48.608;8.838;2023-01-31T11:11:15;8.37;;;4.47;;
32292;SDS011;43233;48.608;8.838;2023-01-31T11:13:53;8.57;;;3.87;;
32292;SDS011;43233;48.608;8.838;2023-01-31T11:16:21;7.67;;;4.00;;
32292;SDS011;43233;48.608;8.838;2023-01-31T11:18:48;6.70;;;4.17;;
32292;SDS011;43233;48.608;8.838;2023-01-31T11:21:25;4.60;;;3.20;;
32292;SDS011;43233;48.608;8.838;2023-01-31T11:23:57;7.63;;;3.40;;
32292;SDS011;43233;48.608;8.838;2023-01-31T11:27:08;9.40;;;4.13;;
32292;SDS011;43233;48.608;8.838;2023-01-31T11:29:48;6.73;;;3.80;;
32292;SDS011;43233;48.608;8.838;2023-01-31T11:32:18;12.23;;;3.40;;
32292;SDS011;43233;48.608;8.838;2023-01-31T11:34:54;9.40;;;3.43;;
32292;SDS011;43233;48.608;8.838;2023-01-31T11:37:19;9.70;;;4.07;;
32292;SDS011;43233;48.608;8.838;2023-01-31T11:39:58;4.87;;;3.37;;
32292;SDS011;43233;48.608;8.838;2023-01-31T11:42:50;8.60;;;3.40;;
32292;SDS011;43233;48.608;8.838;2023-01-31T11:45:17;3.63;;;3.33;;
32292;SDS011;43233;48.608;8.838;2023-01-31T11:47:45;4.07;;;3.40;;
32292;SDS011;43233;48.608;8.838;2023-01-31T11:50:32;3.13;;;2.70;;
32292;SDS011;43233;48.608;8.838;2023-01-31T11:53:03;3.77;;;2.97;;
32292;SDS011;43233;48.608;8.838;2023-01-31T11:55:48;4.27;;;3.47;;
32292;SDS011;43233;48.608;8.838;2023-01-31T11:58:21;14.23;;;4.83;;
32292;SDS011;43233;48.608;8.838;2023-01-31T12:01:01;6.30;;;4.37;;
32292;SDS011;43233;48.608;8.838;2023-01-31T12:03:32;7.50;;;3.53;;
32292;SDS011;43233;48.608;8.838;2023-01-31T12:06:02;4.47;;;4.10;;
32292;SDS011;43233;48.608;8.838;2023-01-31T12:08:42;7.60;;;3.90;;
32292;SDS011;43233;48.608;8.838;2023-01-31T12:13:59;6.63;;;3.47;;
32292;SDS011;43233;48.608;8.838;2023-01-31T12:16:31;6.50;;;4.70;;
32292;SDS011;43233;48.608;8.838;2023-01-31T12:32:29;8.73;;;4.53;;
32292;SDS011;43233;48.608;8.838;2023-01-31T12:51:38;5.47;;;3.80;;
32292;SDS011;43233;48.608;8.838;2023-01-31T12:59:30;8.13;;;4.13;;
32292;SDS011;43233;48.608;8.838;2023-01-31T13:04:34;11.10;;;3.70;;
32292;SDS011;43233;48.608;8.838;2023-01-31T13:07:15;6.23;;;3.80;;
32292;SDS011;43233;48.608;8.838;2023-01-31T13:09:56;5.47;;;3.63;;
32292;SDS011;43233;48.608;8.838;2023-01-31T13:12:26;5.73;;;3.80;;
32292;SDS011;43233;48.608;8.838;2023-01-31T13:14:56;9.47;;;5.87;;
32292;SDS011;43233;48.608;8.838;2023-01-31T13:17:39;9.83;;;5.43;;
32292;SDS011;43233;48.608;8.838;2023-01-31T13:20:20;9.53;;;4.47;;
32292;SDS011;43233;48.608;8.838;2023-01-31T13:22:53;9.23;;;3.90;;
32292;SDS011;43233;48.608;8.838;2023-01-31T13:28:29;7.70;;;4.63;;
32292;SDS011;43233;48.608;8.838;2023-01-31T13:30:59;8.00;;;4.10;;
32292;SDS011;43233;48.608;8.838;2023-01-31T13:33:34;11.93;;;5.40;;
32292;SDS011;43233;48.608;8.838;2023-01-31T13:36:09;7.10;;;3.60;;
32292;SDS011;43233;48.608;8.838;2023-01-31T13:38:58;9.97;;;4.07;;
32292;SDS011;43233;48.608;8.838;2023-01-31T13:41:30;6.23;;;3.63;;
32292;SDS011;43233;48.608;8.838;2023-01-31T13:43:58;6.43;;;4.47;;
32292;SDS011;43233;48.608;8.838;2023-01-31T13:46:38;7.67;;;4.03;;
32292;SDS011;43233;48.608;8.838;2023-01-31T13:49:22;7.90;;;4.10;;
32292;SDS011;43233;48.608;8.838;2023-01-31T13:51:54;6.07;;;4.90;;
32292;SDS011;43233;48.608;8.838;2023-01-31T13:54:23;6.27;;;3.47;;
32292;SDS011;43233;48.608;8.838;2023-01-31T13:57:01;6.10;;;4.20;;
32292;SDS011;43233;48.608;8.838;2023-01-31T13:59:34;9.23;;;3.93;;
32292;SDS011;43233;48.608;8.838;2023-01-31T14:02:03;5.70;;;4.50;;
32292;SDS011;43233;48.608;8.838;2023-01-31T14:04:33;7.80;;;4.90;;
32292;SDS011;43233;48.608;8.838;2023-01-31T14:17:03;5.57;;;4.53;;
32292;SDS011;43233;48.608;8.838;2023-01-31T14:22:41;4.53;;;4.10;;
32292;SDS011;43233;48.608;8.838;2023-01-31T14:32:32;4.60;;;3.33;;
32292;SDS011;43233;48.608;8.838;2023-01-31T14:35:06;6.60;;;3.57;;
32292;SDS011;43233;48.608;8.838;2023-01-31T14:55:33;11.80;;;4.07;;
32292;SDS011;43233;48.608;8.838;2023-01-31T14:58:04;5.80;;;3.60;;
32292;SDS011;43233;48.608;8.838;2023-01-31T15:00:36;3.83;;;3.37;;
32292;SDS011;43233;48.608;8.838;2023-01-31T15:03:15;5.07;;;3.70;;
32292;SDS011;43233;48.608;8.838;2023-01-31T15:05:49;5.93;;;4.53;;
32292;SDS011;43233;48.608;8.838;2023-01-31T15:08:40;3.60;;;3.30;;
32292;SDS011;43233;48.608;8.838;2023-01-31T15:13:57;10.53;;;3.87;;
32292;SDS011;43233;48.608;8.838;2023-01-31T15:21:24;5.80;;;3.50;;
32292;SDS011;43233;48.608;8.838;2023-01-31T15:23:53;5.47;;;3.43;;
32292;SDS011;43233;48.608;8.838;2023-01-31T15:26:19;8.33;;;3.60;;
32292;SDS011;43233;48.608;8.838;2023-01-31T15:28:47;5.47;;;3.80;;
32292;SDS011;43233;48.608;8.838;2023-01-31T15:31:19;10.63;;;4.10;;
32292;SDS011;43233;48.608;8.838;2023-01-31T15:33:52;6.17;;;3.70;;
32292;SDS011;43233;48.608;8.838;2023-01-31T15:41:44;4.30;;;3.40;;
32292;SDS011;43233;48.608;8.838;2023-01-31T15:46:36;12.83;;;3.60;;
32292;SDS011;43233;48.608;8.838;2023-01-31T15:49:01;8.67;;;3.80;;
32292;SDS011;43233;48.608;8.838;2023-01-31T15:51:45;10.90;;;3.63;;
32292;SDS011;43233;48.608;8.838;2023-01-31T15:54:25;8.20;;;4.60;;
32292;SDS011;43233;48.608;8.838;2023-01-31T15:56:51;6.00;;;3.77;;
32292;SDS011;43233;48.608;8.838;2023-01-31T15:59:16;8.33;;;4.80;;
32292;SDS011;43233;48.608;8.838;2023-01-31T16:01:46;4.93;;;4.17;;
32292;SDS011;43233;48.608;8.838;2023-01-31T16:04:13;4.20;;;3.80;;
32292;SDS011;43233;48.608;8.838;2023-01-31T16:06:39;4.23;;;3.40;;
32292;SDS011;43233;48.608;8.838;2023-01-31T16:09:06;4.53;;;4.13;;
32292;SDS011;43233;48.608;8.838;2023-01-31T16:11:46;7.93;;;4.20;;
32292;SDS011;43233;48.608;8.838;2023-01-31T16:14:12;7.80;;;4.33;;
32292;SDS011;43233;48.608;8.838;2023-01-31T16:16:38;9.27;;;4.10;;
32292;SDS011;43233;48.608;8.838;2023-01-31T16:19:03;6.73;;;4.30;;
32292;SDS011;43233;48.608;8.838;2023-01-31T16:21:42;7.38;;;3.97;;
32292;SDS011;43233;48.608;8.838;2023-01-31T16:26:56;6.60;;;4.23;;
32292;SDS011;43233;48.608;8.838;2023-01-31T16:29:39;4.80;;;4.30;;
32292;SDS011;43233;48.608;8.838;2023-01-31T16:34:40;4.53;;;4.17;;
32292;SDS011;43233;48.608;8.838;2023-01-31T16:37:06;6.97;;;4.43;;
32292;SDS011;43233;48.608;8.838;2023-01-31T16:42:20;6.10;;;4.47;;
32292;SDS011;43233;48.608;8.838;2023-01-31T16:44:50;4.73;;;4.13;;
32292;SDS011;43233;48.608;8.838;2023-01-31T16:52:45;5.33;;;3.70;;
32292;SDS011;43233;48.608;8.838;2023-01-31T16:55:14;5.47;;;4.67;;
32292;SDS011;43233;48.608;8.838;2023-01-31T16:57:39;4.30;;;3.90;;
32292;SDS011;43233;48.608;8.838;2023-01-31T17:00:06;5.10;;;4.60;;
32292;SDS011;43233;48.608;8.838;2023-01-31T17:02:53;5.13;;;4.30;;
32292;SDS011;43233;48.608;8.838;2023-01-31T17:05:25;7.00;;;4.23;;
32292;SDS011;43233;48.608;8.838;2023-01-31T17:07:53;11.57;;;4.70;;
32292;SDS011;43233;48.608;8.838;2023-01-31T17:10:25;7.10;;;4.77;;
32292;SDS011;43233;48.608;8.838;2023-01-31T17:12:58;4.00;;;3.70;;
32292;SDS011;43233;48.608;8.838;2023-01-31T17:15:30;5.10;;;4.20;;
32292;SDS011;43233;48.608;8.838;2023-01-31T17:17:55;10.87;;;4.53;;
32292;SDS011;43233;48.608;8.838;2023-01-31T17:20:21;10.40;;;4.00;;
32292;SDS011;43233;48.608;8.838;2023-01-31T17:22:47;10.57;;;4.30;;
32292;SDS011;43233;48.608;8.838;2023-01-31T17:25:14;4.07;;;3.67;;
32292;SDS011;43233;48.608;8.838;2023-01-31T17:27:42;7.20;;;4.50;;
32292;SDS011;43233;48.608;8.838;2023-01-31T17:30:08;9.40;;;4.90;;
32292;SDS011;43233;48.608;8.838;2023-01-31T17:32:34;6.30;;;4.20;;
32292;SDS011;43233;48.608;8.838;2023-01-31T17:35:00;6.30;;;4.40;;
32292;SDS011;43233;48.608;8.838;2023-01-31T17:37:26;5.87;;;4.37;;
32292;SDS011;43233;48.608;8.838;2023-01-31T17:39:52;8.20;;;4.37;;
32292;SDS011;43233;48.608;8.838;2023-01-31T17:42:19;5.77;;;4.47;;
32292;SDS011;43233;48.608;8.838;2023-01-31T17:44:45;5.07;;;4.47;;
32292;SDS011;43233;48.608;8.838;2023-01-31T17:47:12;6.20;;;4.10;;
32292;SDS011;43233;48.608;8.838;2023-01-31T17:49:38;10.10;;;4.73;;